Time;durP1;ratioP1;P1;durP2;ratioP2;P2;SDS_P1;SDS_P2;PMS_P1;PMS_P2;Temp;Humidity;BMP_temperature;BMP_pressure;BME280_temperature;BME280_humidity;BME280_pressure;Samples;Min_cycle;Max_cycle;Signal;HPM_P1;HPM_P2
2023/10/10 00:00:26;;;;;;;16.45;5.78;;;;;;;16.10;58.56;97224.13;6273239;22;20048;-79
2023/10/10 00:02:54;;;;;;;12.73;5.55;;;;;;;16.09;58.33;97230.38;6272460;22;20011;-80
2023/10/10 00:05:33;;;;;;;10.75;5.47;;;;;;;16.08;58.66;97223.50;6248263;22;20054;-80
2023/10/10 00:08:05;;;;;;;12.38;4.82;;;;;;;16.06;58.35;97226.31;6248530;23;20026;-79
2023/10/10 00:10:34;;;;;;;16.42;6.25;;;;;;;16.05;58.34;97223.91;6247375;23;20024;-80
2023/10/10 00:13:03;;;;;;;25.00;5.85;;;;;;;16.02;58.65;97217.22;6246919;23;20027;-80
2023/10/10 00:15:37;;;;;;;15.48;5.45;;;;;;;16.02;58.63;97222.47;6245997;22;20385;-80
2023/10/10 00:18:11;;;;;;;13.60;5.28;;;;;;;16.01;58.58;97218.25;6246248;23;20074;-80
2023/10/10 00:20:44;;;;;;;13.20;5.38;;;;;;;16.00;58.79;97221.88;6246554;23;20366;-80
2023/10/10 00:23:16;;;;;;;18.67;5.32;;;;;;;16.00;58.73;97221.88;6246396;23;20353;-80
2023/10/10 00:25:47;;;;;;;18.40;5.15;;;;;;;15.98;58.78;97223.06;6245935;22;20107;-80
2023/10/10 00:28:20;;;;;;;15.40;5.22;;;;;;;15.95;58.87;97218.22;6246075;23;20027;-80
2023/10/10 00:30:49;;;;;;;15.52;5.63;;;;;;;15.92;59.13;97223.88;6245895;23;20115;-80
2023/10/10 00:33:17;;;;;;;19.85;5.60;;;;;;;15.88;59.11;97222.69;6245882;23;20028;-80
2023/10/10 00:35:47;;;;;;;18.58;5.43;;;;;;;15.82;59.42;97224.28;6245740;22;20062;-80
2023/10/10 00:38:24;;;;;;;12.85;4.88;;;;;;;15.81;59.51;97225.31;6245750;23;20062;-80
2023/10/10 00:40:52;;;;;;;14.77;5.20;;;;;;;15.79;59.36;97217.59;6245959;23;20078;-80
2023/10/10 00:43:23;;;;;;;16.13;4.85;;;;;;;15.78;59.61;97217.78;6245464;23;20468;-80
2023/10/10 00:45:53;;;;;;;18.85;6.25;;;;;;;15.74;59.85;97211.31;6245278;22;20055;-80
2023/10/10 00:48:23;;;;;;;16.10;4.72;;;;;;;15.66;59.93;97210.44;6245948;23;20052;-80
2023/10/10 00:51:05;;;;;;;16.73;5.53;;;;;;;15.61;60.16;97209.41;6245905;23;20044;-80
2023/10/10 00:53:34;;;;;;;;;;;;;;;15.60;60.35;97210.44;6246274;23;20086;-80
2023/10/10 00:56:06;;;;;;;13.70;4.75;;;;;;;15.60;60.03;97218.31;6245573;22;19922;-80
2023/10/10 00:58:39;;;;;;;15.45;4.35;;;;;;;15.59;60.12;97217.53;6245748;23;20028;-80
2023/10/10 01:01:09;;;;;;;15.05;4.85;;;;;;;15.58;60.12;97213.25;6245781;23;20099;-80
2023/10/10 01:03:41;;;;;;;14.75;4.55;;;;;;;15.55;60.21;97208.41;6250514;23;20016;-80
2023/10/10 01:06:24;;;;;;;13.85;5.28;;;;;;;15.52;60.62;97214.03;6260143;22;20020;-79
2023/10/10 01:08:55;;;;;;;16.50;5.47;;;;;;;15.51;60.58;97211.63;6260200;23;20024;-80
2023/10/10 01:11:23;;;;;;;13.68;5.30;;;;;;;15.51;60.83;97212.44;6254270;23;20024;-80
2023/10/10 01:13:53;;;;;;;18.00;5.38;;;;;;;15.52;60.51;97203.53;6245896;23;20016;-80
2023/10/10 01:16:24;;;;;;;15.00;4.75;;;;;;;15.50;60.46;97199.47;6245537;22;20070;-79
2023/10/10 01:18:57;;;;;;;13.93;5.18;;;;;;;15.48;60.94;97194.44;6245542;23;20024;-80
2023/10/10 01:21:32;;;;;;;18.10;5.15;;;;;;;15.47;60.83;97190.16;6245383;23;20074;-79
2023/10/10 01:24:08;;;;;;;11.82;4.80;;;;;;;15.47;60.80;97195.44;6245021;23;20100;-80
2023/10/10 01:26:38;;;;;;;19.08;5.63;;;;;;;15.46;60.63;97191.19;6244874;23;20028;-79
2023/10/10 01:29:21;;;;;;;15.55;5.22;;;;;;;15.43;60.97;97196.84;6245599;23;20059;-80
2023/10/10 01:31:51;;;;;;;14.35;4.53;;;;;;;15.43;61.10;97199.47;6245482;23;20031;-79
2023/10/10 01:34:39;;;;;;;13.95;4.65;;;;;;;15.44;60.86;97195.84;6245132;22;20032;-80
2023/10/10 01:37:14;;;;;;;12.45;4.38;;;;;;;15.42;61.34;97196.03;6245149;23;20082;-80
2023/10/10 01:40:05;;;;;;;10.80;4.60;;;;;;;15.41;61.50;97188.34;6247639;23;20024;-80
2023/10/10 01:42:37;;;;;;;13.85;4.55;;;;;;;15.41;60.98;97183.06;6248797;23;20024;-80
2023/10/10 01:45:08;;;;;;;13.47;5.10;;;;;;;15.40;61.16;97184.91;6247277;22;20474;-80
2023/10/10 01:47:39;;;;;;;12.88;4.35;;;;;;;15.41;61.72;97185.69;6247331;23;20060;-80
2023/10/10 01:50:12;;;;;;;11.02;5.05;;;;;;;15.41;61.18;97185.69;6246262;23;20093;-80
2023/10/10 01:52:45;;;;;;;;;;;;;;;15.40;61.14;97179.63;6246392;23;20048;-79
2023/10/10 01:55:16;;;;;;;14.77;5.60;;;;;;;15.33;61.11;97180.66;6245326;22;19962;-80
2023/10/10 01:57:43;;;;;;;17.83;6.28;;;;;;;15.24;61.60;97183.44;6245653;23;20341;-80
2023/10/10 02:00:20;;;;;;;12.18;4.88;;;;;;;15.22;62.65;97182.81;6245186;23;20099;-80
2023/10/10 02:02:49;;;;;;;13.07;4.72;;;;;;;15.25;62.01;97178.97;6245263;23;20026;-80
2023/10/10 02:05:29;;;;;;;15.73;5.93;;;;;;;15.25;62.03;97182.41;6244715;22;20470;-80
2023/10/10 02:07:58;;;;;;;22.42;5.50;;;;;;;15.24;61.92;97180.81;6244860;23;20015;-80
2023/10/10 02:10:29;;;;;;;10.82;4.57;;;;;;;15.19;62.50;97177.13;6245523;23;20085;-80
2023/10/10 02:13:00;;;;;;;11.13;4.60;;;;;;;15.21;62.39;97178.56;6245118;23;20488;-80
2023/10/10 02:15:32;;;;;;;14.68;5.63;;;;;;;15.20;62.25;97173.53;6244967;22;20028;-80
2023/10/10 02:18:04;;;;;;;16.65;5.88;;;;;;;15.13;62.42;97176.13;6245030;23;20096;-80
2023/10/10 02:20:50;;;;;;;16.00;6.43;;;;;;;15.04;62.61;97172.84;6247457;23;20023;-79
2023/10/10 02:23:31;;;;;;;18.92;6.18;;;;;;;15.03;63.19;97167.78;6247128;23;20024;-80
2023/10/10 02:26:03;;;;;;;15.38;4.90;;;;;;;15.04;63.27;97164.13;6246666;22;20030;-79
2023/10/10 02:28:47;;;;;;;18.45;6.07;;;;;;;15.03;63.72;97179.09;6247026;23;20050;-79
2023/10/10 02:31:16;;;;;;;12.18;4.70;;;;;;;15.06;63.06;97177.91;6247020;23;20024;-79
2023/10/10 02:34:02;;;;;;;15.20;4.82;;;;;;;15.08;62.61;97178.50;6247076;23;20118;-80
2023/10/10 02:36:34;;;;;;;22.30;6.38;;;;;;;15.06;62.38;97188.41;6246747;22;20024;-80
2023/10/10 02:39:19;;;;;;;;;;;;;;;15.05;62.65;97181.53;6247580;23;20070;-80
2023/10/10 02:41:51;;;;;;;16.35;5.60;;;;;;;15.04;62.58;97180.75;6246709;23;19997;-79
2023/10/10 02:44:46;;;;;;;;;;;;;;;15.02;62.37;97187.16;6247417;22;20024;-80
2023/10/10 02:47:14;;;;;;;15.52;5.45;;;;;;;14.99;62.39;97182.31;6246904;23;19919;-80
2023/10/10 02:49:42;;;;;;;9.85;4.53;;;;;;;14.97;62.59;97189.59;6246577;23;20406;-80
2023/10/10 02:52:14;;;;;;;19.17;5.72;;;;;;;14.94;62.87;97184.72;6247188;23;20103;-80
2023/10/10 02:54:53;;;;;;;13.20;4.65;;;;;;;14.93;62.88;97183.09;6246047;22;20106;-80
2023/10/10 02:57:34;;;;;;;12.20;5.25;;;;;;;14.92;62.56;97187.53;6246823;23;20458;-79
2023/10/10 03:02:49;;;;;;;11.82;5.00;;;;;;;14.84;63.27;97180.63;6246705;23;20028;-80
2023/10/10 03:05:29;;;;;;;13.48;4.50;;;;;;;14.83;62.95;97191.34;6246159;22;20484;-80
2023/10/10 03:07:57;;;;;;;12.65;5.57;;;;;;;14.81;62.99;97186.28;6246655;23;20058;-80
2023/10/10 03:10:38;;;;;;;13.35;5.10;;;;;;;14.82;63.15;97192.31;6246747;23;20024;-80
2023/10/10 03:13:13;;;;;;;12.83;6.03;;;;;;;14.80;63.06;97186.47;6246875;23;20020;-80
2023/10/10 03:15:55;;;;;;;17.27;5.78;;;;;;;14.74;63.24;97188.06;6246307;22;20244;-79
2023/10/10 03:18:29;;;;;;;17.45;5.55;;;;;;;14.65;63.86;97180.50;6246362;23;20020;-80
2023/10/10 03:21:12;;;;;;;15.13;5.53;;;;;;;14.60;63.92;97183.72;6246765;23;20021;-80
2023/10/10 03:23:54;;;;;;;16.20;5.45;;;;;;;14.57;63.87;97174.41;6246463;23;20397;-80
2023/10/10 03:29:26;;;;;;;14.95;4.88;;;;;;;14.46;64.02;97182.00;6245610;22;20474;-80
2023/10/10 03:32:25;;;;;;;13.98;5.80;;;;;;;14.45;64.12;97175.91;6247858;23;20327;-80
2023/10/10 03:34:55;;;;;;;12.52;4.55;;;;;;;14.51;63.95;97176.97;6267132;22;20020;-79
2023/10/10 03:37:28;;;;;;;12.05;4.88;;;;;;;14.51;63.52;97172.53;6266002;23;20071;-80
2023/10/10 03:39:58;;;;;;;15.05;5.40;;;;;;;14.50;63.32;97164.88;6253657;23;20410;-79
2023/10/10 05:25:06;;;;;;;17.80;7.03;;;;;;;13.78;65.08;97206.88;6216651;23;20055;-79
2023/10/10 05:27:45;;;;;;;12.90;6.55;;;;;;;13.76;65.90;97208.06;6214810;23;20024;-79
2023/10/10 05:30:25;;;;;;;17.65;7.13;;;;;;;13.79;65.87;97207.66;6215185;23;20043;-79
2023/10/10 05:33:02;;;;;;;12.95;6.93;;;;;;;13.83;65.79;97206.31;6215441;23;20458;-79
2023/10/10 05:35:40;;;;;;;15.30;6.70;;;;;;;13.84;65.49;97200.06;6215042;23;20027;-79
2023/10/10 05:38:21;;;;;;;17.95;7.25;;;;;;;13.86;65.03;97200.66;6214629;23;20462;-79
2023/10/10 05:40:59;;;;;;;11.35;6.63;;;;;;;13.84;64.77;97199.25;6188987;23;20429;-80
2023/10/10 05:43:43;;;;;;;13.68;6.40;;;;;;;13.80;65.40;97198.81;6215251;23;20020;-79
2023/10/10 05:57:28;;;;;;;16.67;7.28;;;;;;;13.82;64.79;97202.06;6243158;22;20020;-79
2023/10/10 06:02:56;;;;;;;14.25;6.38;;;;;;;13.81;65.04;97208.31;6225634;23;20020;-79
2023/10/10 06:05:33;;;;;;;19.92;7.60;;;;;;;13.80;64.96;97204.88;6246892;22;20027;-79
2023/10/10 06:08:10;;;;;;;20.83;6.55;;;;;;;13.80;64.87;97209.31;6222281;23;20352;-79
2023/10/10 06:10:44;;;;;;;20.08;6.00;;;;;;;13.80;64.90;97211.94;6247010;22;20024;-79
2023/10/10 06:16:40;;;;;;;14.57;5.25;;;;;;;13.90;64.89;97209.78;6247663;22;20016;-79
2023/10/10 06:19:29;;;;;;;16.20;5.18;;;;;;;13.98;64.71;97216.75;6261435;22;20071;-79
2023/10/10 06:22:08;;;;;;;15.45;5.97;;;;;;;14.07;64.88;97214.78;6262696;23;20023;-79
2023/10/10 06:24:49;;;;;;;16.40;5.45;;;;;;;14.18;64.25;97219.53;6249914;22;20361;-79
2023/10/10 06:27:28;;;;;;;17.48;6.15;;;;;;;14.30;63.98;97214.56;6247316;23;20405;-80
2023/10/10 06:30:42;;;;;;;20.90;6.20;;;;;;;14.39;63.67;97210.81;6246066;23;20100;-79
2023/10/10 07:06:59;;;;;;;18.73;6.30;;;;;;;15.94;60.60;97238.47;6209991;22;20050;-79
2023/10/10 07:09:29;;;;;;;14.60;5.47;;;;;;;16.06;60.61;97231.59;6218373;23;20016;-79
2023/10/10 07:12:09;;;;;;;12.88;5.40;;;;;;;16.22;60.33;97234.84;6216547;23;20025;-79
2023/10/10 07:14:40;;;;;;;13.88;5.45;;;;;;;16.40;60.05;97232.44;6216639;23;20027;-80
2023/10/10 07:17:11;;;;;;;15.57;5.68;;;;;;;16.59;59.78;97232.59;6216572;23;20032;-78
2023/10/10 07:27:23;;;;;;;16.20;6.00;;;;;;;17.29;57.88;97231.06;6240826;22;20461;-80
2023/10/10 07:30:08;;;;;;;19.50;6.47;;;;;;;17.48;57.56;97231.97;6246829;23;20487;-81
2023/10/10 07:32:39;;;;;;;16.67;5.97;;;;;;;17.66;56.94;97238.41;6246313;23;20100;-81
2023/10/10 07:35:07;;;;;;;18.75;5.28;;;;;;;17.81;56.82;97232.84;6246318;22;20051;-80
2023/10/10 07:37:35;;;;;;;18.35;6.40;;;;;;;17.97;56.33;97240.28;6246001;23;20024;-80
2023/10/10 07:40:20;;;;;;;17.77;5.78;;;;;;;18.10;55.71;97242.00;6245936;23;20103;-80
2023/10/10 07:42:58;;;;;;;17.08;5.60;;;;;;;18.27;55.42;97237.03;6245784;23;20075;-82
2023/10/10 07:45:29;;;;;;;15.35;5.28;;;;;;;18.49;55.33;97246.19;6245782;22;20026;-82
2023/10/10 07:50:48;;;;;;;13.77;5.07;;;;;;;19.37;53.19;97244.31;6246716;23;20028;-81
2023/10/10 07:53:17;;;;;;;10.70;4.50;;;;;;;19.63;51.51;97240.53;6246645;23;20469;-81
2023/10/10 07:55:53;;;;;;;16.92;5.05;;;;;;;19.72;51.44;97243.69;6247023;22;20027;-81
2023/10/10 07:58:23;;;;;;;12.52;5.28;;;;;;;19.77;51.49;97246.50;6246669;23;20063;-81
2023/10/10 08:01:09;;;;;;;25.27;5.03;;;;;;;19.85;51.13;97248.00;6246891;23;20078;-81
2023/10/10 08:03:37;;;;;;;19.90;4.70;;;;;;;20.00;50.62;97240.47;6247466;22;20016;-81
2023/10/10 08:06:08;;;;;;;18.20;5.47;;;;;;;20.34;50.26;97248.72;6248975;22;20393;-81
2023/10/10 08:08:40;;;;;;;17.60;5.90;;;;;;;20.67;49.34;97244.75;6249261;23;20131;-81
2023/10/10 08:11:12;;;;;;;16.20;5.57;;;;;;;20.89;48.83;97247.63;6247925;23;20016;-81
2023/10/10 08:13:48;;;;;;;21.55;6.05;;;;;;;21.09;47.68;97248.06;6248537;23;20023;-82
2023/10/10 08:16:21;;;;;;;17.58;5.80;;;;;;;21.17;47.78;97246.91;6250826;22;20070;-81
2023/10/10 08:18:53;;;;;;;14.05;6.38;;;;;;;21.24;47.79;97257.41;6248372;23;20024;-81
2023/10/10 08:21:24;;;;;;;16.50;5.22;;;;;;;21.35;47.64;97245.94;6249177;23;20050;-81
2023/10/10 08:23:56;;;;;;;14.05;5.22;;;;;;;21.55;46.27;97251.69;6248260;23;20508;-81
2023/10/10 08:26:29;;;;;;;;;;;;;;;21.81;47.69;97246.84;6247839;22;20055;-83
2023/10/10 08:28:58;;;;;;;18.50;5.63;;;;;;;22.15;45.50;97253.06;6246163;23;20246;-80
2023/10/10 08:31:25;;;;;;;12.82;4.85;;;;;;;22.50;44.77;97256.53;6246734;23;20485;-81
2023/10/10 08:33:53;;;;;;;16.20;5.30;;;;;;;22.78;43.90;97255.63;6247968;23;20098;-81
2023/10/10 08:36:24;;;;;;;16.52;5.65;;;;;;;22.95;43.09;97258.28;6247505;22;20024;-82
2023/10/10 08:38:52;;;;;;;18.63;4.80;;;;;;;23.11;42.90;97259.31;6247947;23;20047;-80
2023/10/10 08:41:22;;;;;;;18.20;5.53;;;;;;;23.30;41.70;97262.50;6247149;23;20072;-81
2023/10/10 08:43:57;;;;;;;14.82;5.25;;;;;;;23.51;41.20;97258.25;6246988;23;20016;-81
2023/10/10 08:46:29;;;;;;;16.88;5.55;;;;;;;23.72;40.26;97261.94;6246894;22;20016;-81
2023/10/10 08:48:59;;;;;;;21.90;5.80;;;;;;;23.87;40.70;97264.78;6247185;23;20104;-81
2023/10/10 08:51:32;;;;;;;17.23;5.18;;;;;;;24.11;40.57;97262.63;6246280;23;20022;-82
2023/10/10 08:54:01;;;;;;;14.70;5.45;;;;;;;24.32;39.78;97262.81;6246752;23;20044;-82
2023/10/10 08:56:37;;;;;;;13.40;5.18;;;;;;;24.48;39.41;97267.22;6246514;22;20119;-81
2023/10/10 08:59:06;;;;;;;13.98;5.10;;;;;;;24.72;38.72;97258.88;6246202;23;20081;-82
2023/10/10 09:01:35;;;;;;;12.85;5.22;;;;;;;24.97;38.98;97261.72;6246230;23;20062;-81
2023/10/10 09:04:05;;;;;;;15.02;4.90;;;;;;;25.25;38.34;97257.06;6246127;23;20034;-81
2023/10/10 09:06:44;;;;;;;14.25;4.75;;;;;;;25.51;37.28;97254.50;6249759;22;20039;-82
2023/10/10 09:11:56;;;;;;;14.55;4.75;;;;;;;26.03;36.76;97254.41;6248705;22;20549;-82
2023/10/10 09:14:37;;;;;;;12.32;5.07;;;;;;;26.29;36.01;97249.88;6248927;22;20409;-82
2023/10/10 09:17:08;;;;;;;17.87;6.10;;;;;;;26.47;35.62;97245.06;6221122;23;20077;-82
2023/10/10 09:19:47;;;;;;;15.18;4.95;;;;;;;26.61;35.14;97246.19;6247859;23;20020;-81
2023/10/10 09:22:28;;;;;;;10.10;4.35;;;;;;;26.80;34.47;97242.94;6250234;23;20090;-81
2023/10/10 09:24:56;;;;;;;16.67;5.70;;;;;;;26.96;34.06;97246.38;6249386;22;20024;-82
2023/10/10 09:27:27;;;;;;;9.13;4.50;;;;;;;27.09;34.09;97241.25;6248760;23;20024;-82
2023/10/10 09:29:57;;;;;;;10.27;3.83;;;;;;;27.30;33.61;97247.38;6249180;22;20036;-82
2023/10/10 09:32:36;;;;;;;15.40;5.15;;;;;;;27.55;33.00;97248.34;6249883;23;20024;-82
2023/10/10 09:35:08;;;;;;;11.35;4.13;;;;;;;27.72;32.29;97247.97;6249377;22;20084;-82
2023/10/10 09:37:41;;;;;;;;;;;;;;;27.85;32.82;97244.72;6250120;23;20020;-82
2023/10/10 09:40:16;;;;;;;19.33;5.18;;;;;;;27.90;32.19;97238.50;6249989;23;20227;-82
2023/10/10 09:43:03;;;;;;;13.93;4.78;;;;;;;28.00;31.37;97243.81;6250110;23;20074;-81
2023/10/10 09:48:46;;;;;;;9.57;4.75;;;;;;;28.29;30.85;97249.22;6270220;23;20024;-82
2023/10/10 09:52:47;;;;;;;14.85;4.65;;;;;;;28.41;30.35;97242.72;6257888;23;20023;-83
2023/10/10 09:54:25;;;;;;;13.43;4.78;;;;;;;28.47;30.38;97246.94;6250624;22;20020;-82
2023/10/10 09:56:54;;;;;;;12.40;5.13;;;;;;;28.44;30.37;97244.84;6250473;23;20024;-82
2023/10/10 09:59:28;;;;;;;11.48;4.75;;;;;;;28.37;29.06;97242.47;6249323;23;20523;-83
2023/10/10 10:02:04;;;;;;;14.07;4.50;;;;;;;28.29;29.42;97246.53;6250303;23;20458;-83
2023/10/10 10:04:41;;;;;;;9.80;4.20;;;;;;;28.29;28.43;97240.38;6249621;22;20027;-83
2023/10/10 10:07:23;;;;;;;8.50;4.40;;;;;;;28.34;29.39;97249.22;6249435;23;20075;-83
2023/10/10 10:10:09;;;;;;;11.63;6.07;;;;;;;28.48;28.04;97251.28;6249041;23;20023;-82
2023/10/10 10:12:52;;;;;;;12.45;5.47;;;;;;;28.61;27.60;97247.13;6249221;23;20127;-82
2023/10/10 10:15:39;;;;;;;10.13;5.07;;;;;;;28.81;27.56;97248.81;6247926;22;20030;-83
2023/10/10 10:18:13;;;;;;;11.30;4.78;;;;;;;29.02;26.81;97252.91;6248761;23;20429;-82
2023/10/10 10:20:47;;;;;;;12.48;5.40;;;;;;;29.29;26.64;97256.94;6248513;23;20016;-83
2023/10/10 10:23:25;;;;;;;13.80;5.60;;;;;;;29.54;24.99;97253.94;6248162;23;20401;-81
2023/10/10 10:26:04;;;;;;;11.52;5.35;;;;;;;29.66;24.79;97252.72;6247254;22;20072;-81
2023/10/10 10:28:35;;;;;;;12.27;4.28;;;;;;;29.69;24.77;97252.16;6248007;23;20028;-81
2023/10/10 10:31:05;;;;;;;12.85;5.25;;;;;;;29.65;24.91;97253.78;6248131;23;20091;-82
2023/10/10 10:33:35;;;;;;;17.02;5.28;;;;;;;29.60;24.79;97251.19;6248556;23;20082;-81
2023/10/10 10:36:14;;;;;;;11.23;6.10;;;;;;;29.44;24.79;97248.69;6248266;22;20035;-82
2023/10/10 10:41:47;;;;;;;11.93;5.47;;;;;;;29.28;25.28;97249.94;6247222;22;20055;-82
2023/10/10 10:44:28;;;;;;;13.15;5.22;;;;;;;29.26;24.93;97254.84;6247557;23;20047;-81
2023/10/10 10:46:57;;;;;;;8.07;4.10;;;;;;;29.31;25.40;97254.75;6248146;23;20016;-83
2023/10/10 10:49:28;;;;;;;13.43;4.57;;;;;;;29.38;25.53;97255.22;6248364;23;20024;-82
2023/10/10 10:52:17;;;;;;;11.18;4.07;;;;;;;29.44;25.02;97247.91;6247792;23;20020;-81
2023/10/10 10:55:00;;;;;;;18.38;7.25;;;;;;;29.50;24.75;97250.22;6246663;22;20020;-81
2023/10/10 10:57:29;;;;;;;10.68;5.18;;;;;;;29.48;24.90;97244.34;6249028;23;20026;-81
2023/10/10 11:00:25;;;;;;;11.77;4.28;;;;;;;29.50;25.17;97242.16;6248910;23;20048;-81
2023/10/10 11:02:58;;;;;;;10.25;4.32;;;;;;;29.52;25.31;97245.38;6247080;23;20095;-81
2023/10/10 11:05:28;;;;;;;16.02;6.30;;;;;;;29.50;25.11;97239.47;6247056;22;20024;-82
2023/10/10 11:08:10;;;;;;;15.07;6.55;;;;;;;29.45;25.01;97239.53;6247505;23;20043;-82
2023/10/10 11:10:46;;;;;;;10.88;5.63;;;;;;;29.49;24.83;97243.25;6247247;23;20350;-81
2023/10/10 11:13:14;;;;;;;12.25;4.65;;;;;;;29.55;25.08;97231.34;6247617;23;20031;-81
2023/10/10 11:15:42;;;;;;;11.25;4.88;;;;;;;29.61;24.42;97223.19;6248059;22;20048;-81
2023/10/10 11:18:10;;;;;;;12.10;4.78;;;;;;;29.65;24.82;97229.59;6256514;23;20024;-82
2023/10/10 11:23:21;;;;;;;9.52;4.82;;;;;;;29.71;24.30;97220.41;6248923;22;20089;-82
2023/10/10 11:26:00;;;;;;;13.75;5.38;;;;;;;29.87;24.29;97218.28;6248664;22;20031;-81
2023/10/10 11:28:37;;;;;;;11.88;4.72;;;;;;;29.98;24.26;97214.38;6250033;23;20027;-81
2023/10/10 11:31:07;;;;;;;10.27;5.10;;;;;;;29.98;24.02;97206.31;6249896;23;20035;-82
2023/10/10 11:33:55;;;;;;;9.68;4.85;;;;;;;29.92;24.10;97202.09;6248711;23;20028;-82
2023/10/10 11:36:29;;;;;;;8.02;4.07;;;;;;;30.06;24.27;97200.25;6248195;22;20056;-82
2023/10/10 11:39:16;;;;;;;7.32;4.28;;;;;;;30.40;23.77;97193.81;6247937;23;20024;-81
2023/10/10 11:41:46;;;;;;;9.00;4.75;;;;;;;30.98;23.40;97195.19;6248656;23;20404;-81
2023/10/10 11:44:18;;;;;;;12.43;4.43;;;;;;;31.51;22.44;97196.56;6248124;23;20024;-81
2023/10/10 11:46:48;;;;;;;13.90;4.72;;;;;;;32.20;21.50;97193.66;6248362;22;20028;-81
2023/10/10 11:49:16;;;;;;;13.55;4.60;;;;;;;32.84;21.01;97188.78;6248275;23;20056;-81
2023/10/10 11:51:43;;;;;;;10.55;4.80;;;;;;;33.33;20.70;97186.09;6247248;23;20099;-82
2023/10/10 11:54:12;;;;;;;12.30;5.03;;;;;;;33.53;20.37;97179.25;6247633;23;20096;-81
2023/10/10 11:56:46;;;;;;;9.50;4.40;;;;;;;33.72;19.90;97176.28;6249220;22;20026;-82
2023/10/10 11:59:14;;;;;;;8.18;4.60;;;;;;;34.28;19.78;97178.31;6255144;23;20050;-82
2023/10/10 12:01:49;;;;;;;11.20;4.25;;;;;;;34.91;18.42;97184.81;6247324;23;20461;-81
2023/10/10 12:04:33;;;;;;;11.10;4.18;;;;;;;35.14;18.64;97185.38;6247227;23;20493;-82
2023/10/10 12:07:02;;;;;;;9.55;4.82;;;;;;;34.62;19.07;97169.31;6248146;23;20062;-81
2023/10/10 12:09:34;;;;;;;10.90;5.55;;;;;;;33.85;19.95;97167.22;6247274;23;20478;-81
2023/10/10 12:12:03;;;;;;;13.45;4.90;;;;;;;33.07;20.75;97166.31;6247267;23;20020;-81
2023/10/10 12:14:32;;;;;;;11.65;5.07;;;;;;;32.44;21.10;97169.81;6247149;22;20089;-82
2023/10/10 12:17:05;;;;;;;10.57;5.07;;;;;;;31.89;21.16;97167.38;6247630;23;20031;-82
2023/10/10 12:19:37;;;;;;;11.60;5.30;;;;;;;31.38;22.01;97158.53;6249200;23;20332;-81
2023/10/10 12:22:10;;;;;;;13.55;5.93;;;;;;;30.94;22.17;97160.00;6246706;23;20039;-82
2023/10/10 12:24:40;;;;;;;11.60;5.00;;;;;;;30.52;22.13;97153.75;6246869;22;20074;-81
2023/10/10 12:27:08;;;;;;;9.73;4.75;;;;;;;30.23;22.93;97145.91;6246398;23;20020;-81
2023/10/10 12:29:39;;;;;;;10.57;5.03;;;;;;;29.99;23.23;97149.50;6246280;23;20024;-82
2023/10/10 12:32:15;;;;;;;11.88;5.05;;;;;;;29.81;23.48;97144.97;6246195;22;20366;-82
2023/10/10 12:34:45;;;;;;;11.73;5.75;;;;;;;29.60;22.73;97133.69;6246269;22;20481;-81
2023/10/10 12:37:15;;;;;;;10.90;5.65;;;;;;;29.41;23.29;97132.88;6246643;23;20023;-81
2023/10/10 12:39:45;;;;;;;10.23;5.82;;;;;;;29.21;22.39;97136.66;6246599;23;20023;-81
2023/10/10 12:42:12;;;;;;;10.73;5.97;;;;;;;29.06;22.14;97125.03;6245772;23;20103;-81
2023/10/10 12:44:40;;;;;;;14.63;6.22;;;;;;;28.93;22.73;97128.41;6245492;22;20055;-81
2023/10/10 12:47:08;;;;;;;11.27;5.65;;;;;;;28.78;23.28;97123.22;6245823;23;20086;-81
2023/10/10 12:49:44;;;;;;;7.93;4.40;;;;;;;28.67;23.99;97126.00;6245514;23;20070;-81
2023/10/10 12:52:12;;;;;;;13.85;5.88;;;;;;;28.55;23.51;97118.34;6245577;23;20016;-82
2023/10/10 12:54:41;;;;;;;13.77;6.78;;;;;;;28.46;23.05;97122.72;6245215;22;20020;-81
2023/10/10 12:57:14;;;;;;;14.88;6.13;;;;;;;28.37;22.83;97121.75;6256762;23;20020;-81
2023/10/10 12:59:46;;;;;;;12.05;5.97;;;;;;;28.31;23.53;97120.97;6263581;23;20453;-82
2023/10/10 13:02:16;;;;;;;13.07;5.80;;;;;;;28.24;22.58;97111.69;6252666;23;20047;-82
2023/10/10 13:04:46;;;;;;;15.85;7.07;;;;;;;28.15;22.50;97117.66;6247235;22;20051;-82
2023/10/10 13:07:16;;;;;;;20.90;8.13;;;;;;;28.07;22.41;97106.72;6247987;23;20071;-81
2023/10/10 13:09:46;;;;;;;14.60;7.43;;;;;;;27.97;22.20;97104.13;6247142;23;20066;-82
2023/10/10 13:12:27;;;;;;;14.75;6.28;;;;;;;27.90;22.87;97112.50;6247634;23;20020;-81
2023/10/10 13:15:16;;;;;;;10.23;6.57;;;;;;;27.85;21.88;97102.63;6246789;22;20024;-81
2023/10/10 13:17:53;;;;;;;14.20;6.93;;;;;;;27.77;22.00;97105.06;6247286;23;20047;-82
2023/10/10 13:20:22;;;;;;;11.90;6.78;;;;;;;27.68;21.54;97108.38;6246192;22;20426;-81
2023/10/10 13:22:51;;;;;;;13.35;7.28;;;;;;;27.60;21.72;97098.25;6248707;23;20016;-82
2023/10/10 13:25:20;;;;;;;11.23;6.88;;;;;;;27.53;21.80;97101.25;6249717;22;20519;-81
2023/10/10 13:27:52;;;;;;;16.20;7.68;;;;;;;27.44;21.89;97097.56;6251046;23;20070;-82
2023/10/10 13:30:19;;;;;;;12.38;6.88;;;;;;;27.38;21.65;97103.22;6264238;23;20073;-82
2023/10/10 13:32:48;;;;;;;15.23;7.28;;;;;;;27.32;21.06;97094.41;6261725;23;20094;-81
2023/10/10 13:35:16;;;;;;;11.98;6.93;;;;;;;27.28;21.64;97096.03;6247290;22;20031;-81
2023/10/10 13:37:44;;;;;;;12.10;6.68;;;;;;;27.21;22.15;97091.00;6247161;23;20024;-81
2023/10/10 13:40:20;;;;;;;14.55;6.95;;;;;;;27.16;21.74;97100.88;6246562;23;20094;-81
2023/10/10 13:42:50;;;;;;;15.18;7.18;;;;;;;27.10;21.21;97100.13;6253366;23;20025;-81
2023/10/10 13:45:22;;;;;;;13.68;7.80;;;;;;;27.01;21.50;97086.53;6269313;22;20031;-80
2023/10/10 13:47:50;;;;;;;14.32;7.75;;;;;;;26.95;20.34;97087.63;6265454;23;20078;-81
2023/10/10 13:50:31;;;;;;;13.88;7.53;;;;;;;26.87;19.52;97083.66;6248549;23;20056;-81
2023/10/10 13:52:59;;;;;;;16.48;8.70;;;;;;;26.79;19.32;97092.25;6247708;23;20026;-81
2023/10/10 13:55:29;;;;;;;13.77;7.78;;;;;;;26.72;19.28;97083.72;6247450;22;20012;-81
2023/10/10 13:57:58;;;;;;;12.93;7.97;;;;;;;26.68;19.60;97090.69;6247636;23;20020;-81
2023/10/10 14:00:33;;;;;;;15.25;8.32;;;;;;;26.62;19.86;97087.22;6252806;23;20028;-81
2023/10/10 14:03:03;;;;;;;14.25;8.88;;;;;;;26.55;19.86;97081.34;6262585;23;20020;-81
2023/10/10 14:05:34;;;;;;;13.90;7.63;;;;;;;26.48;20.05;97088.88;6262031;22;20024;-81
2023/10/10 14:08:07;;;;;;;12.02;7.85;;;;;;;26.40;20.19;97084.06;6265597;23;20358;-80
2023/10/10 14:10:36;;;;;;;11.93;6.93;;;;;;;26.36;21.10;97088.34;6263781;23;20044;-81
2023/10/10 14:13:18;;;;;;;14.32;7.93;;;;;;;26.31;21.27;97086.50;6248423;23;20107;-81
2023/10/10 14:15:56;;;;;;;15.05;6.82;;;;;;;26.26;21.19;97089.16;6249835;22;20099;-81
2023/10/10 14:18:25;;;;;;;16.85;8.15;;;;;;;26.20;21.62;97083.03;6252334;23;20012;-81
2023/10/10 14:20:54;;;;;;;15.75;7.25;;;;;;;26.15;22.00;97077.72;6249816;23;20020;-81
2023/10/10 14:23:24;;;;;;;11.65;7.30;;;;;;;26.13;22.25;97085.19;6248026;23;20017;-81
2023/10/10 14:25:51;;;;;;;14.52;8.00;;;;;;;26.07;22.33;97072.91;6248187;22;20020;-80
2023/10/10 14:28:20;;;;;;;14.98;7.75;;;;;;;25.98;22.33;97082.53;6249115;23;20044;-80
2023/10/10 14:30:50;;;;;;;16.63;7.75;;;;;;;25.92;22.42;97079.06;6247833;23;20047;-81
2023/10/10 14:33:22;;;;;;;13.45;7.20;;;;;;;25.85;22.61;97076.63;6247670;23;20466;-81
2023/10/10 14:35:49;;;;;;;15.43;7.57;;;;;;;25.82;22.55;97074.50;6248319;22;20055;-80
2023/10/10 14:38:17;;;;;;;13.88;7.80;;;;;;;25.78;22.70;97077.94;6248016;23;20035;-81
2023/10/10 14:40:45;;;;;;;12.00;7.38;;;;;;;25.73;22.78;97070.75;6248837;23;20362;-80
2023/10/10 14:43:13;;;;;;;14.30;7.50;;;;;;;25.67;22.88;97077.16;6249658;23;20100;-81
2023/10/10 14:45:43;;;;;;;12.55;6.88;;;;;;;25.61;22.88;97073.69;6249354;22;20103;-81
2023/10/10 14:48:14;;;;;;;16.48;7.85;;;;;;;25.56;23.02;97075.53;6250018;23;20050;-82
2023/10/10 14:50:42;;;;;;;12.07;6.90;;;;;;;25.48;23.48;97063.53;6248947;23;20362;-81
2023/10/10 14:53:10;;;;;;;14.55;7.03;;;;;;;25.40;23.45;97072.06;6248376;23;20020;-81
2023/10/10 14:55:43;;;;;;;14.73;7.40;;;;;;;25.33;23.29;97067.00;6247615;22;20339;-81
2023/10/10 14:58:12;;;;;;;13.93;7.07;;;;;;;25.28;23.04;97064.31;6248622;23;20102;-80